Station Historical Data
Daily Summary for November 22, 2017 Units:  Metric    English   Both
« Previous Day
Next Day »
Daily Weekly Monthly Yearly Custom
  High: Low: Average:
Temperature: 4.1 °C -3.7 °C -0.1 °C
Dew Point: 2.1 °C -8.1 °C -4.6 °C
Humidity: 91% 62% 72%
Wind Speed: 16.1km/h 0km/h 6.3km/h
Wind Gust: 29km/h - -
Wind- - WNW
Pressure: 1024.3 hPa 1013.1 hPa -
Precipitation: 0 mm    
Historical Graphs
 
 
Tabular Data for November 22, 2017
Time Temperature Dew Point Pressure Wind Wind Speed Wind Gust Humidity Rainfall Rate (Hourly)
00:09 4.1 °C 2.1 °C 1013.1 hPa WNW 3.2 km/h 8 km/h 87% 1.02 mm
00:14 4.1 °C 2.1 °C 1013.1 hPa WNW 3.2 km/h 4.8 km/h 87% 1.02 mm
00:24 4 °C 2.1 °C 1013.1 hPa WNW 8 km/h 9.7 km/h 87% 1.02 mm
00:34 3.8 °C 1.8 °C 1013.1 hPa WNW 8 km/h 16.1 km/h 87% 1.27 mm
00:54 3.7 °C 1.8 °C 1013.1 hPa WNW 4.8 km/h 12.9 km/h 87% 1.27 mm
01:04 3.4 °C 1.7 °C 1013.4 hPa WNW 6.4 km/h 16.1 km/h 88% 1.27 mm
01:09 3.2 °C 1.3 °C 1013.4 hPa NW 8 km/h 17.7 km/h 87% 1.27 mm
01:14 3.1 °C 1.3 °C 1013.4 hPa West 9.7 km/h 16.1 km/h 88% 1.27 mm
01:19 2.9 °C 1 °C 1013.4 hPa WNW 1.6 km/h 12.9 km/h 87% 1.27 mm
01:24 2.9 °C 1.1 °C 1013.4 hPa NW 8 km/h 12.9 km/h 88% 1.27 mm
01:29 2.9 °C 1.1 °C 1013.4 hPa WNW 4.8 km/h 11.3 km/h 88% 1.52 mm
01:34 2.8 °C 1.1 °C 1013.4 hPa Calm   12.9 km/h 88% 1.27 mm
01:39 2.8 °C 1.1 °C 1013.4 hPa WNW 4.8 km/h 12.9 km/h 88% 1.27 mm
01:44 2.8 °C 1.1 °C 1013.4 hPa WNW 3.2 km/h 9.7 km/h 88% 1.27 mm
01:49 2.7 °C 0.9 °C 1013.4 hPa NW 4.8 km/h 11.3 km/h 88% 1.27 mm
02:04 2.4 °C 0.8 °C 1013.8 hPa NW 6.4 km/h 16.1 km/h 89% 1.02 mm
02:14 2.2 °C 0.4 °C 1014.1 hPa NW 8 km/h 17.7 km/h 88% 1.27 mm
02:19 2.2 °C 0.4 °C 1014.4 hPa WNW 9.7 km/h 12.9 km/h 88% 1.02 mm
02:39 1.6 °C -0.1 °C 1014.8 hPa Calm   3.2 km/h 89% 1.27 mm
02:59 1.4 °C -0.2 °C 1014.8 hPa NW 1.6 km/h 6.4 km/h 89% 1.02 mm
03:04 1.3 °C -0.2 °C 1014.8 hPa WNW 1.6 km/h 8 km/h 90% 1.27 mm
03:09 1.3 °C -0.2 °C 1014.8 hPa WNW 3.2 km/h 9.7 km/h 90% 1.02 mm
03:14 1.3 °C -0.2 °C 1014.8 hPa WNW 3.2 km/h 9.7 km/h 90% 1.02 mm
03:19 1.3 °C -0.2 °C 1015.1 hPa WNW 4.8 km/h 6.4 km/h 90% 1.02 mm
03:24 1.3 °C -0.1 °C 1014.8 hPa WNW 1.6 km/h 6.4 km/h 90% 1.02 mm
03:29 1.3 °C -0.2 °C 1015.1 hPa WNW 1.6 km/h 6.4 km/h 90% 1.02 mm
03:34 1.3 °C -0.2 °C 1015.1 hPa Calm   9.7 km/h 90% 0.76 mm
03:39 1.3 °C -0.2 °C 1015.1 hPa WNW 4.8 km/h 8 km/h 90% 0.76 mm
03:54 1.2 °C -0.2 °C 1015.5 hPa WNW 1.6 km/h 4.8 km/h 90% 0.51 mm
03:59 1.3 °C -0.2 °C 1015.5 hPa WNW 1.6 km/h 6.4 km/h 90% 0.51 mm
04:04 1.3 °C -0.2 °C 1015.5 hPa WNW 3.2 km/h 6.4 km/h 90% 0.51 mm
04:09 1.3 °C -0.2 °C 1015.5 hPa WNW 1.6 km/h 6.4 km/h 90% 0.51 mm
04:14 1.3 °C 0 °C 1015.5 hPa Calm     91% 0.51 mm
04:24 1.5 °C 0.2 °C 1015.8 hPa WNW 1.6 km/h 4.8 km/h 91% 0.25 mm
04:29 1.6 °C 0.2 °C 1015.8 hPa WNW 1.6 km/h 4.8 km/h 91% 0.25 mm
04:34 1.6 °C 0.3 °C 1015.8 hPa WNW 3.2 km/h 9.7 km/h 91% 0.25 mm
04:39 1.6 °C 0.2 °C 1016.1 hPa WNW 4.8 km/h 11.3 km/h 91% 0.25 mm
04:54 1.4 °C 0 °C 1016.1 hPa NW 6.4 km/h 12.9 km/h 90% 0.25 mm
04:59 1.4 °C -0.1 °C 1016.5 hPa NW 3.2 km/h 17.7 km/h 90% 0.25 mm
05:14 1.5 °C -0.1 °C 1016.5 hPa Calm   8 km/h 89% 0 mm
05:24 1.4 °C -0.5 °C 1016.8 hPa NW 1.6 km/h 11.3 km/h 87% 0 mm
05:29 1.4 °C -0.7 °C 1016.8 hPa WNW 3.2 km/h 12.9 km/h 86% 0 mm
06:04 1.4 °C -1.1 °C 1017.2 hPa WNW 1.6 km/h 8 km/h 83% 0 mm
06:09 1.5 °C -1.1 °C 1017.2 hPa WNW 3.2 km/h 8 km/h 83% 0 mm
06:14 1.4 °C -1.3 °C 1017.2 hPa West 4.8 km/h 16.1 km/h 82% 0 mm
06:19 1.4 °C -1.3 °C 1017.5 hPa West 6.4 km/h 12.9 km/h 82% 0 mm
06:29 1.4 °C -1.4 °C 1017.5 hPa WNW 9.7 km/h 12.9 km/h 81% 0 mm
06:34 1.4 °C -1.6 °C 1017.5 hPa WNW 12.9 km/h 16.1 km/h 80% 0 mm
06:39 1.3 °C -1.7 °C 1017.8 hPa WNW 11.3 km/h 19.3 km/h 80% 0 mm
06:49 1.3 °C -1.7 °C 1017.8 hPa WNW 8 km/h 19.3 km/h 80% 0 mm
06:54 1.3 °C -1.7 °C 1017.8 hPa WNW 8 km/h 16.1 km/h 80% 0 mm
07:04 1.3 °C -1.7 °C 1018.2 hPa WNW 9.7 km/h 16.1 km/h 80% 0 mm
07:09 1.3 °C -1.7 °C 1018.5 hPa West 8 km/h 16.1 km/h 80% 0 mm
07:14 1.3 °C -1.8 °C 1018.5 hPa WNW 8 km/h 19.3 km/h 80% 0 mm
07:19 1.3 °C -1.8 °C 1018.5 hPa WNW 12.9 km/h 17.7 km/h 80% 0 mm
07:29 1.2 °C -1.9 °C 1018.8 hPa WNW 6.4 km/h 14.5 km/h 80% 0 mm
07:34 1.1 °C -2.1 °C 1018.8 hPa WNW 11.3 km/h 16.1 km/h 79% 0 mm
07:39 1.1 °C -2.1 °C 1018.8 hPa West 14.5 km/h 14.5 km/h 79% 0 mm
07:44 1.1 °C -2.1 °C 1019.2 hPa WNW 4.8 km/h 14.5 km/h 79% 0 mm
07:49 1.1 °C -2.3 °C 1019.2 hPa WNW 8 km/h 19.3 km/h 78% 0 mm
07:54 1.1 °C -2.3 °C 1019.2 hPa WNW 8 km/h 19.3 km/h 78% 0 mm
08:04 1.1 °C -2.5 °C 1019.2 hPa WNW 8 km/h 14.5 km/h 77% 0 mm
08:14 1.1 °C -2.6 °C 1019.5 hPa WNW 6.4 km/h 14.5 km/h 77% 0 mm
08:24 1.1 °C -2.5 °C 1019.9 hPa West 4.8 km/h 12.9 km/h 77% 0 mm
08:29 1.2 °C -2.4 °C 1019.9 hPa WNW 3.2 km/h 12.9 km/h 77% 0 mm
08:34 1.2 °C -2.4 °C 1019.9 hPa West 3.2 km/h 9.7 km/h 77% 0 mm
08:44 1.2 °C -2.4 °C 1019.9 hPa WNW 4.8 km/h 17.7 km/h 77% 0 mm
08:54 1.2 °C -2.4 °C 1019.9 hPa WNW 8 km/h 17.7 km/h 77% 0 mm
08:59 1.2 °C -2.6 °C 1019.9 hPa WNW 9.7 km/h 17.7 km/h 76% 0 mm
09:04 1.2 °C -2.6 °C 1020.2 hPa West 9.7 km/h 16.1 km/h 76% 0 mm
09:09 1.3 °C -2.3 °C 1020.2 hPa West 8 km/h 17.7 km/h 77% 0 mm
09:14 1.2 °C -2.6 °C 1020.2 hPa WNW 8 km/h 22.5 km/h 76% 0 mm
09:19 1.2 °C -2.6 °C 1020.2 hPa WNW 9.7 km/h 22.5 km/h 76% 0 mm
09:29 1.2 °C -2.7 °C 1020.2 hPa NW 4.8 km/h 20.9 km/h 75% 0 mm
09:39 1.1 °C -3.4 °C 1020.5 hPa West 14.5 km/h 27.4 km/h 72% 0 mm
09:44 0.9 °C -3.8 °C 1020.5 hPa WSW 11.3 km/h 29 km/h 71% 0 mm
09:59 0.7 °C -4.1 °C 1020.9 hPa NW 4.8 km/h 29 km/h 70% 0 mm
10:04 0.7 °C -4.2 °C 1020.9 hPa NW 11.3 km/h 29 km/h 70% 0 mm
10:14 0.6 °C -4.3 °C 1020.9 hPa NW 9.7 km/h 22.5 km/h 70% 0 mm
10:24 0.6 °C -4.1 °C 1020.9 hPa WNW 9.7 km/h 20.9 km/h 71% 0 mm
10:34 0.7 °C -4.1 °C 1020.9 hPa NW 8 km/h 16.1 km/h 70% 0 mm
10:39 0.8 °C -4.1 °C 1020.9 hPa WNW 6.4 km/h 14.5 km/h 70% 0 mm
10:44 0.8 °C -4 °C 1021.2 hPa NW 12.9 km/h 17.7 km/h 70% 0 mm
10:49 0.8 °C -4.2 °C 1020.9 hPa WSW 11.3 km/h 16.1 km/h 69% 0 mm
10:54 0.8 °C -4.3 °C 1020.9 hPa WNW 8 km/h 17.7 km/h 69% 0 mm
10:59 0.9 °C -3.9 °C 1021.2 hPa NW 9.7 km/h 16.1 km/h 70% 0 mm
11:04 0.8 °C -4 °C 1021.2 hPa WNW 8 km/h 17.7 km/h 70% 0 mm
11:14 0.8 °C -4 °C 1021.2 hPa NW 8 km/h 19.3 km/h 70% 0 mm
11:19 0.6 °C -4.2 °C 1021.2 hPa NW 9.7 km/h 20.9 km/h 70% 0 mm
11:24 0.3 °C -4.6 °C 1021.2 hPa WNW 8 km/h 20.9 km/h 70% 0 mm
11:29 0.2 °C -4.5 °C 1021.2 hPa Calm   16.1 km/h 71% 0 mm
11:34 0.2 °C -4.5 °C 1021.2 hPa NW 11.3 km/h 16.1 km/h 71% 0 mm
11:49 0.2 °C -4.4 °C 1021.2 hPa North 3.2 km/h 17.7 km/h 71% 0 mm
11:54 0.1 °C -4.9 °C 1021.2 hPa NNW 16.1 km/h 19.3 km/h 69% 0 mm
11:59 0.1 °C -4.9 °C 1021.2 hPa WNW 9.7 km/h 16.1 km/h 69% 0 mm
12:04 0.1 °C -4.9 °C 1021.2 hPa WNW 6.4 km/h 14.5 km/h 69% 0 mm
12:09 0.2 °C -5.1 °C 1021.2 hPa West 14.5 km/h 16.1 km/h 68% 0 mm
12:14 0.2 °C -5.1 °C 1021.2 hPa WNW 8 km/h 16.1 km/h 68% 0 mm
12:19 0.1 °C -5.1 °C 1021.2 hPa WNW 9.7 km/h 19.3 km/h 68% 0 mm
12:29 0.2 °C -5.2 °C 1021.2 hPa WNW 8 km/h 17.7 km/h 67% 0 mm
12:34 0.2 °C -5.2 °C 1021.2 hPa WNW 9.7 km/h 20.9 km/h 67% 0 mm
12:39 0.2 °C -5.2 °C 1021.2 hPa North 11.3 km/h 17.7 km/h 67% 0 mm
12:44 0.2 °C -5.2 °C 1021.2 hPa WNW 9.7 km/h 22.5 km/h 67% 0 mm
12:49 0.1 °C -5.7 °C 1021.2 hPa WNW 11.3 km/h 22.5 km/h 65% 0 mm
12:54 0.2 °C -5.7 °C 1021.2 hPa NW 4.8 km/h 16.1 km/h 65% 0 mm
12:59 0.2 °C -5.6 °C 1021.2 hPa NW 8 km/h 16.1 km/h 65% 0 mm
13:04 0.3 °C -5.6 °C 1021.2 hPa West 6.4 km/h 17.7 km/h 65% 0 mm
13:09 0.3 °C -5.7 °C 1021.2 hPa NNW 4.8 km/h 16.1 km/h 64% 0 mm
13:14 0.1 °C -5.9 °C 1021.6 hPa NNW 12.9 km/h 19.3 km/h 64% 0 mm
13:34 0.1 °C -5.9 °C 1021.6 hPa WNW 8 km/h 19.3 km/h 64% 0 mm
13:39 -0.1 °C -6.3 °C 1021.6 hPa West 1.6 km/h 14.5 km/h 63% 0 mm
13:44 -0.1 °C -6.3 °C 1021.6 hPa NW 9.7 km/h 19.3 km/h 63% 0 mm
13:49 0 °C -6 °C 1021.6 hPa WNW 12.9 km/h 17.7 km/h 64% 0 mm
14:04 -0.2 °C -6.4 °C 1021.6 hPa West 9.7 km/h 19.3 km/h 63% 0 mm
14:09 -0.3 °C -6.3 °C 1021.2 hPa West 9.7 km/h 14.5 km/h 64% 0 mm
14:14 -0.3 °C -6.3 °C 1021.6 hPa WNW 12.9 km/h 22.5 km/h 64% 0 mm
14:19 -0.4 °C -6.4 °C 1021.6 hPa NW 8 km/h 20.9 km/h 64% 0 mm
14:24 -0.4 °C -6.4 °C 1021.6 hPa WNW 11.3 km/h 20.9 km/h 64% 0 mm
14:29 -0.4 °C -6.4 °C 1021.6 hPa WNW 9.7 km/h 20.9 km/h 64% 0 mm
14:39 -0.5 °C -6.9 °C 1021.9 hPa WNW 4.8 km/h 12.9 km/h 62% 0 mm
14:44 -0.5 °C -6.7 °C 1021.9 hPa NW 4.8 km/h 16.1 km/h 63% 0 mm
14:54 -0.3 °C -6.6 °C 1021.9 hPa NNE 8 km/h 11.3 km/h 63% 0 mm
14:59 -0.3 °C -6.6 °C 1021.9 hPa WNW 6.4 km/h 17.7 km/h 63% 0 mm
15:04 -0.4 °C -6.8 °C 1022.2 hPa WNW 8 km/h 17.7 km/h 62% 0 mm
15:09 -0.5 °C -6.9 °C 1022.2 hPa NW 8 km/h 22.5 km/h 62% 0 mm
15:14 -0.5 °C -6.7 °C 1022.2 hPa WNW 8 km/h 22.5 km/h 63% 0 mm
15:19 -0.5 °C -6.7 °C 1022.2 hPa West 6.4 km/h 19.3 km/h 63% 0 mm
15:24 -0.6 °C -6.9 °C 1022.6 hPa West 4.8 km/h 17.7 km/h 62% 0 mm
15:29 -0.6 °C -6.7 °C 1022.6 hPa West 8 km/h 17.7 km/h 63% 0 mm
15:39 -0.6 °C -6.8 °C 1022.9 hPa WNW 9.7 km/h 17.7 km/h 63% 0 mm
15:44 -0.7 °C -6.7 °C 1022.9 hPa NW 3.2 km/h 17.7 km/h 64% 0 mm
15:49 -0.7 °C -6.7 °C 1022.9 hPa WNW 3.2 km/h 22.5 km/h 64% 0 mm
15:54 -0.7 °C -6.7 °C 1022.9 hPa WNW 8 km/h 14.5 km/h 64% 0 mm
15:59 -0.7 °C -6.7 °C 1022.9 hPa NNW 11.3 km/h 20.9 km/h 64% 0 mm
16:04 -0.8 °C -6.9 °C 1022.9 hPa WNW 11.3 km/h 20.9 km/h 63% 0 mm
16:09 -0.8 °C -7.2 °C 1023.2 hPa WNW 11.3 km/h 22.5 km/h 62% 0 mm
16:14 -0.8 °C -7 °C 1023.2 hPa WNW 11.3 km/h 22.5 km/h 63% 0 mm
16:19 -0.9 °C -7.1 °C 1023.2 hPa NW 9.7 km/h 19.3 km/h 63% 0 mm
16:24 -0.9 °C -7.1 °C 1023.2 hPa NNW 6.4 km/h 17.7 km/h 63% 0 mm
16:29 -0.9 °C -7.1 °C 1023.2 hPa West 4.8 km/h 17.7 km/h 63% 0 mm
16:34 -0.8 °C -7 °C 1023.2 hPa WNW 6.4 km/h 17.7 km/h 63% 0 mm
16:39 -0.9 °C -7.1 °C 1023.2 hPa WNW 4.8 km/h 12.9 km/h 63% 0 mm
16:44 -0.9 °C -7.3 °C 1023.2 hPa NW 8 km/h 20.9 km/h 62% 0 mm
16:49 -0.9 °C -7.1 °C 1023.2 hPa WNW 11.3 km/h 17.7 km/h 63% 0 mm
16:54 -0.9 °C -7.1 °C 1023.2 hPa West 3.2 km/h 14.5 km/h 63% 0 mm
16:59 -0.9 °C -6.9 °C 1023.6 hPa WNW 8 km/h 17.7 km/h 64% 0 mm
17:04 -0.9 °C -6.9 °C 1023.6 hPa WNW 8 km/h 17.7 km/h 64% 0 mm
17:09 -0.9 °C -6.9 °C 1023.6 hPa WNW 8 km/h 14.5 km/h 64% 0 mm
17:14 -0.9 °C -6.9 °C 1023.6 hPa WNW 6.4 km/h 14.5 km/h 64% 0 mm
17:19 -0.9 °C -6.9 °C 1023.6 hPa West 6.4 km/h 16.1 km/h 64% 0 mm
17:24 -0.9 °C -6.9 °C 1023.6 hPa West 8 km/h 16.1 km/h 64% 0 mm
17:39 -0.9 °C -6.8 °C 1023.9 hPa WNW 8 km/h 19.3 km/h 64% 0 mm
17:44 -0.9 °C -6.9 °C 1023.6 hPa WNW 6.4 km/h 17.7 km/h 64% 0 mm
17:49 -0.9 °C -7.1 °C 1023.9 hPa NW 8 km/h 16.1 km/h 63% 0 mm
17:54 -0.9 °C -7.1 °C 1023.9 hPa West 9.7 km/h 12.9 km/h 63% 0 mm
17:59 -0.9 °C -7.1 °C 1023.9 hPa WNW 9.7 km/h 11.3 km/h 63% 0 mm
18:04 -0.9 °C -7.3 °C 1023.9 hPa WNW 3.2 km/h 14.5 km/h 62% 0 mm
18:09 -0.9 °C -7.1 °C 1023.9 hPa WNW 6.4 km/h 14.5 km/h 63% 0 mm
18:19 -1.1 °C -7.2 °C 1023.9 hPa West 6.4 km/h 17.7 km/h 63% 0 mm
18:24 -1.1 °C -7.3 °C 1023.9 hPa WNW 8 km/h 17.7 km/h 63% 0 mm
18:29 -1.2 °C -7.5 °C 1024.3 hPa WNW 9.7 km/h 17.7 km/h 62% 0 mm
18:34 -1.2 °C -7.5 °C 1024.3 hPa WNW 8 km/h 17.7 km/h 62% 0 mm
18:39 -1.2 °C -7.6 °C 1023.9 hPa West 8 km/h 14.5 km/h 62% 0 mm
18:44 -1.2 °C -7.6 °C 1024.3 hPa West 8 km/h 16.1 km/h 62% 0 mm
18:49 -1.2 °C -7.6 °C 1024.3 hPa WNW 4.8 km/h 14.5 km/h 62% 0 mm
18:54 -1.2 °C -7.4 °C 1024.3 hPa WSW 6.4 km/h 9.7 km/h 63% 0 mm
19:04 -1.2 °C -7.4 °C 1024.3 hPa West 8 km/h 16.1 km/h 63% 0 mm
19:09 -1.3 °C -7.4 °C 1024.3 hPa WNW 11.3 km/h 14.5 km/h 63% 0 mm
19:14 -1.2 °C -7.2 °C 1024.3 hPa West 3.2 km/h 14.5 km/h 64% 0 mm
19:19 -1.3 °C -7.2 °C 1024.3 hPa WNW 6.4 km/h 14.5 km/h 64% 0 mm
19:24 -1.3 °C -7.2 °C 1024.3 hPa WNW 8 km/h 14.5 km/h 64% 0 mm
19:29 -1.3 °C -7.3 °C 1024.3 hPa West 9.7 km/h 17.7 km/h 64% 0 mm
19:34 -1.4 °C -7.3 °C 1024.3 hPa WNW 9.7 km/h 19.3 km/h 64% 0 mm
19:39 -1.4 °C -7.3 °C 1024.3 hPa WNW 8 km/h 19.3 km/h 64% 0 mm
19:44 -1.4 °C -7.3 °C 1024.3 hPa WNW 9.7 km/h 17.7 km/h 64% 0 mm
19:49 -1.4 °C -7.4 °C 1024.3 hPa WNW 8 km/h 17.7 km/h 64% 0 mm
19:59 -1.4 °C -7.6 °C 1024.3 hPa NNW 9.7 km/h 16.1 km/h 63% 0 mm
20:04 -1.6 °C -7.7 °C 1024.3 hPa WNW 3.2 km/h 11.3 km/h 63% 0 mm
20:09 -1.6 °C -7.5 °C 1024.3 hPa Calm   8 km/h 64% 0 mm
20:14 -1.6 °C -7.5 °C 1024.3 hPa WNW 8 km/h 12.9 km/h 64% 0 mm
20:19 -1.6 °C -7.5 °C 1024.3 hPa WNW 6.4 km/h 14.5 km/h 64% 0 mm
20:24 -1.6 °C -7.7 °C 1023.9 hPa WSW 4.8 km/h 14.5 km/h 63% 0 mm
20:29 -1.6 °C -7.7 °C 1024.3 hPa WNW 6.4 km/h 14.5 km/h 63% 0 mm
20:34 -1.7 °C -7.8 °C 1024.3 hPa WNW 8 km/h 17.7 km/h 63% 0 mm
20:39 -1.7 °C -7.7 °C 1024.3 hPa WNW 8 km/h 17.7 km/h 64% 0 mm
20:44 -1.8 °C -7.7 °C 1024.3 hPa WNW 6.4 km/h 14.5 km/h 64% 0 mm
20:49 -1.8 °C -7.7 °C 1024.3 hPa West 8 km/h 16.1 km/h 64% 0 mm
20:54 -1.8 °C -7.7 °C 1024.3 hPa NW 4.8 km/h 17.7 km/h 64% 0 mm
20:59 -1.8 °C -7.6 °C 1024.3 hPa West 4.8 km/h 11.3 km/h 65% 0 mm
21:04 -1.8 °C -7.6 °C 1023.9 hPa West 11.3 km/h 14.5 km/h 65% 0 mm
21:09 -1.9 °C -7.8 °C 1023.9 hPa West 4.8 km/h 16.1 km/h 64% 0 mm
21:14 -2.1 °C -7.8 °C 1023.9 hPa WNW 8 km/h 11.3 km/h 65% 0 mm
21:24 -2.3 °C -8 °C 1023.9 hPa West 6.4 km/h 9.7 km/h 65% 0 mm
21:29 -2.4 °C -8.1 °C 1023.9 hPa West 4.8 km/h 12.9 km/h 65% 0 mm
21:39 -2.6 °C -8.1 °C 1023.9 hPa WNW 3.2 km/h 8 km/h 66% 0 mm
21:44 -2.6 °C -8.1 °C 1023.9 hPa WNW 3.2 km/h 9.7 km/h 66% 0 mm
21:49 -2.6 °C -8.1 °C 1023.6 hPa West 1.6 km/h 8 km/h 66% 0 mm
21:54 -2.7 °C -7.9 °C 1023.6 hPa Calm   4.8 km/h 67% 0 mm
21:59 -2.8 °C -8.1 °C 1023.6 hPa West 1.6 km/h 4.8 km/h 67% 0 mm
22:04 -2.8 °C -8.1 °C 1023.6 hPa West 3.2 km/h 6.4 km/h 67% 0 mm
22:19 -2.8 °C -7.9 °C 1023.6 hPa West 1.6 km/h 6.4 km/h 68% 0 mm
22:24 -2.8 °C -7.9 °C 1023.2 hPa Calm   8 km/h 68% 0 mm
22:29 -2.8 °C -7.9 °C 1023.2 hPa West 1.6 km/h 8 km/h 68% 0 mm
22:34 -2.9 °C -8 °C 1023.2 hPa West 1.6 km/h 4.8 km/h 68% 0 mm
22:39 -2.9 °C -7.8 °C 1023.2 hPa Calm   4.8 km/h 69% 0 mm
22:44 -2.9 °C -7.8 °C 1023.2 hPa Calm   4.8 km/h 69% 0 mm
22:49 -2.9 °C -7.8 °C 1023.2 hPa WSW 1.6 km/h 6.4 km/h 69% 0 mm
22:54 -2.9 °C -7.8 °C 1022.9 hPa WSW 1.6 km/h 6.4 km/h 69% 0 mm
22:59 -2.9 °C -7.8 °C 1022.9 hPa WSW 1.6 km/h 4.8 km/h 69% 0 mm
23:04 -3 °C -7.9 °C 1022.9 hPa Calm   3.2 km/h 69% 0 mm
23:09 -3.1 °C -7.9 °C 1022.6 hPa Calm   1.6 km/h 69% 0 mm
23:14 -3.2 °C -7.9 °C 1022.9 hPa Calm   3.2 km/h 70% 0 mm
23:34 -3.5 °C -7.8 °C 1022.9 hPa Calm     72% 0 mm
23:39 -3.6 °C -7.9 °C 1022.9 hPa Calm     72% 0 mm
23:44 -3.6 °C -7.9 °C 1022.9 hPa Calm     72% 0 mm
23:49 -3.7 °C -7.8 °C 1022.9 hPa Calm     73% 0 mm
23:54 -3.7 °C -7.8 °C 1022.9 hPa Calm     73% 0 mm
23:59 -3.7 °C -7.7 °C 1022.9 hPa Calm     74% 0 mm
Buffalo, New York, USA
Compliments of Weather Underground - 2 mb